Time;durP1;ratioP1;P1;durP2;ratioP2;P2;SDS_P1;SDS_P2;PMS_P1;PMS_P2;Temp;Humidity;BMP_temperature;BMP_pressure;BME280_temperature;BME280_humidity;BME280_pressure;Samples;Min_cycle;Max_cycle;Signal;HPM_P1;HPM_P2
2023/08/07 00:00:26;;;;;;;0.88;0.20;;;;;;;15.55;100.00;99519.97;5606928;31;34069;-68
2023/08/07 00:03:28;;;;;;;0.30;0.20;;;;;;;15.61;100.00;99512.91;5603859;31;33718;-69
2023/08/07 00:06:31;;;;;;;2.17;0.10;;;;;;;15.57;100.00;99517.91;5605887;31;34597;-70
2023/08/07 00:09:34;;;;;;;1.10;0.37;;;;;;;15.57;100.00;99512.56;5607044;31;34907;-72
2023/08/07 00:12:37;;;;;;;0.73;0.20;;;;;;;15.59;100.00;99515.81;5606461;31;34788;-71
2023/08/07 00:15:40;;;;;;;1.02;0.50;;;;;;;15.55;100.00;99521.81;5607123;31;33935;-70
2023/08/07 00:18:43;;;;;;;0.68;0.30;;;;;;;15.47;100.00;99520.22;5606978;31;33925;-70
2023/08/07 00:21:45;;;;;;;2.25;0.30;;;;;;;15.45;100.00;99514.25;5606802;31;33775;-70
2023/08/07 00:24:48;;;;;;;1.48;0.30;;;;;;;15.43;100.00;99516.38;5606826;31;33828;-69
2023/08/07 00:27:51;;;;;;;3.35;0.30;;;;;;;15.50;100.00;99514.44;5606689;31;34304;-69
2023/08/07 00:30:54;;;;;;;0.20;0.20;;;;;;;15.48;100.00;99513.03;5606751;31;33929;-70
2023/08/07 00:33:57;;;;;;;1.35;0.30;;;;;;;15.51;100.00;99517.94;5606700;31;34392;-69
2023/08/07 00:37:00;;;;;;;1.65;0.30;;;;;;;15.57;100.00;99520.56;5606521;31;33964;-69
2023/08/07 00:40:04;;;;;;;2.80;0.30;;;;;;;15.62;100.00;99523.41;5606930;31;34495;-69
2023/08/07 00:43:07;;;;;;;2.25;0.30;;;;;;;15.63;100.00;99519.69;5605798;31;33887;-69
2023/08/07 00:46:11;;;;;;;1.40;0.20;;;;;;;15.60;100.00;99522.78;5606524;31;33633;-70
2023/08/07 00:49:14;;;;;;;1.75;0.30;;;;;;;15.64;100.00;99520.47;5605968;31;33974;-70
2023/08/07 00:52:17;;;;;;;2.62;0.20;;;;;;;15.51;100.00;99523.28;5606576;31;33671;-69
2023/08/07 00:55:22;;;;;;;0.82;0.43;;;;;;;15.49;100.00;99517.34;5605546;31;33616;-70
2023/08/07 00:58:25;;;;;;;0.40;0.30;;;;;;;15.48;100.00;99515.69;5606517;31;34028;-70
2023/08/07 01:01:28;;;;;;;0.37;0.20;;;;;;;15.43;100.00;99519.03;5606405;31;34928;-72
2023/08/07 01:04:34;;;;;;;0.70;0.30;;;;;;;15.39;100.00;99511.69;5606376;31;33655;-70
2023/08/07 01:07:37;;;;;;;3.30;0.43;;;;;;;15.35;100.00;99516.62;5605213;31;33871;-71
2023/08/07 01:11:06;;;;;;;0.50;0.20;;;;;;;15.35;100.00;99515.78;5606330;31;34388;-70
2023/08/07 01:14:48;;;;;;;0.73;0.30;;;;;;;15.23;100.00;99521.87;5606033;31;34649;-69
2023/08/07 01:17:52;;;;;;;;;;;;;;;15.17;100.00;99516.56;5606267;31;33893;-70
2023/08/07 01:20:55;;;;;;;0.85;0.20;;;;;;;15.28;100.00;99528.41;5606282;31;33767;-70
2023/08/07 01:23:58;;;;;;;1.00;0.30;;;;;;;15.25;100.00;99520.84;5605926;31;33856;-70
2023/08/07 01:27:24;;;;;;;0.30;0.20;;;;;;;15.16;100.00;99515.75;5608481;31;33907;-70
2023/08/07 01:30:36;;;;;;;0.20;0.20;;;;;;;15.12;100.00;99529.78;5608393;31;33607;-69
2023/08/07 01:34:01;;;;;;;2.47;0.20;;;;;;;15.30;100.00;99524.47;5608355;31;33607;-69
2023/08/07 01:37:07;;;;;;;2.25;0.32;;;;;;;15.42;100.00;99533.44;5608337;31;34520;-70
2023/08/07 01:40:12;;;;;;;1.10;0.10;;;;;;;15.55;100.00;99535.19;5608296;31;33857;-68
2023/08/07 01:43:16;;;;;;;0.60;0.20;;;;;;;15.55;100.00;99541.34;5608388;31;33929;-68
2023/08/07 01:46:19;;;;;;;0.70;0.20;;;;;;;15.61;100.00;99537.81;5608443;31;33677;-70
2023/08/07 01:49:22;;;;;;;0.40;0.20;;;;;;;15.70;100.00;99542.84;5607288;31;34514;-70
2023/08/07 01:52:25;;;;;;;1.27;0.28;;;;;;;15.68;100.00;99542.28;5608157;31;34790;-70
2023/08/07 01:55:30;;;;;;;0.70;0.30;;;;;;;15.63;100.00;99537.59;5608491;31;33664;-70
2023/08/07 01:58:33;;;;;;;1.85;0.28;;;;;;;15.63;100.00;99532.25;5608053;31;35249;-70
2023/08/07 02:01:35;;;;;;;2.65;0.30;;;;;;;15.62;100.00;99539.44;5608162;31;34581;-69
2023/08/07 02:04:39;;;;;;;0.65;0.20;;;;;;;15.58;100.00;99540.94;5608484;31;33735;-70
2023/08/07 02:07:42;;;;;;;2.42;0.22;;;;;;;15.63;100.00;99556.31;5608288;31;34373;-70
2023/08/07 02:10:45;;;;;;;0.40;0.30;;;;;;;15.65;100.00;99543.50;5607884;31;34132;-71
2023/08/07 02:13:48;;;;;;;3.40;0.20;;;;;;;15.62;100.00;99541.28;5607985;31;33676;-71
2023/08/07 02:16:51;;;;;;;2.95;0.20;;;;;;;15.61;100.00;99547.69;5607944;31;33717;-71
2023/08/07 02:19:54;;;;;;;2.92;0.40;;;;;;;15.65;100.00;99547.00;5607883;31;34327;-69
2023/08/07 02:22:57;;;;;;;1.27;0.40;;;;;;;15.61;100.00;99548.50;5607854;31;34969;-69
2023/08/07 02:26:01;;;;;;;0.95;0.30;;;;;;;15.55;100.00;99546.69;5607745;31;34613;-68
2023/08/07 02:29:07;;;;;;;2.30;0.30;;;;;;;15.50;100.00;99554.53;5607732;31;34872;-68
2023/08/07 02:32:10;;;;;;;2.30;0.30;;;;;;;15.50;100.00;99545.69;5607000;31;33913;-70
2023/08/07 02:35:12;;;;;;;0.65;0.30;;;;;;;15.39;100.00;99549.09;5607570;31;34501;-70
2023/08/07 02:38:15;;;;;;;1.60;0.40;;;;;;;15.35;100.00;99554.03;5607560;31;33604;-69
2023/08/07 02:41:18;;;;;;;3.37;0.37;;;;;;;15.29;100.00;99548.75;5607722;31;33899;-70
2023/08/07 02:44:25;;;;;;;0.40;0.30;;;;;;;15.28;100.00;99547.12;5607620;31;33976;-70
2023/08/07 02:47:27;;;;;;;1.65;0.30;;;;;;;15.26;100.00;99555.34;5607837;31;33841;-70
2023/08/07 02:50:32;;;;;;;0.88;0.30;;;;;;;15.16;100.00;99544.31;5607649;31;33829;-69
2023/08/07 02:53:35;;;;;;;1.42;0.37;;;;;;;15.22;100.00;99549.63;5607625;31;33926;-69
2023/08/07 02:56:38;;;;;;;3.45;0.73;;;;;;;15.23;100.00;99563.81;5607529;31;34626;-69
2023/08/07 02:59:40;;;;;;;1.50;0.50;;;;;;;15.26;100.00;99558.03;5607437;31;34363;-67
2023/08/07 03:02:43;;;;;;;1.58;0.40;;;;;;;15.31;100.00;99552.84;5607452;31;33851;-68
2023/08/07 03:05:50;;;;;;;1.08;0.40;;;;;;;15.28;100.00;99555.97;5607332;31;33932;-70
2023/08/07 03:08:53;;;;;;;1.70;0.52;;;;;;;15.23;100.00;99564.63;5607771;31;34904;-69
2023/08/07 03:11:55;;;;;;;2.83;0.40;;;;;;;15.20;100.00;99562.38;5607400;31;34678;-69
2023/08/07 03:14:58;;;;;;;1.70;0.40;;;;;;;15.16;100.00;99553.16;5607788;31;33643;-68
2023/08/07 03:18:01;;;;;;;2.12;0.30;;;;;;;15.10;100.00;99558.56;5607322;31;34562;-68
2023/08/07 03:21:04;;;;;;;1.77;0.40;;;;;;;15.09;100.00;99557.75;5607202;31;34544;-68
2023/08/07 03:24:06;;;;;;;1.65;0.30;;;;;;;15.06;100.00;99550.16;5607417;31;33771;-69
2023/08/07 03:27:12;;;;;;;0.77;0.50;;;;;;;15.11;100.00;99553.00;5607171;31;34515;-68
2023/08/07 03:30:15;;;;;;;1.08;0.52;;;;;;;15.03;100.00;99561.28;5607567;31;33813;-69
2023/08/07 03:33:19;;;;;;;1.02;0.40;;;;;;;15.00;100.00;99560.91;5607143;31;33913;-71
2023/08/07 03:36:22;;;;;;;1.77;0.50;;;;;;;15.06;100.00;99560.03;5607164;31;33607;-70
2023/08/07 03:39:26;;;;;;;0.57;0.50;;;;;;;15.06;100.00;99562.69;5606935;31;33640;-69
2023/08/07 03:42:28;;;;;;;2.60;0.60;;;;;;;15.03;100.00;99555.94;5606865;31;34717;-69
2023/08/07 03:45:31;;;;;;;2.53;1.00;;;;;;;14.96;100.00;99570.38;5607036;31;34535;-70
2023/08/07 03:48:34;;;;;;;2.08;0.40;;;;;;;14.95;100.00;99574.91;5606291;31;34266;-68
2023/08/07 03:51:37;;;;;;;0.85;0.50;;;;;;;14.96;100.00;99581.06;5607355;31;34457;-69
2023/08/07 03:54:42;;;;;;;1.85;0.50;;;;;;;14.90;100.00;99580.06;5607062;31;33770;-70
2023/08/07 03:57:45;;;;;;;2.90;0.80;;;;;;;14.90;100.00;99580.06;5606777;31;34781;-69
2023/08/07 04:00:48;;;;;;;1.87;0.50;;;;;;;14.88;100.00;99578.62;5606884;31;34617;-69
2023/08/07 04:03:51;;;;;;;1.45;0.80;;;;;;;14.88;100.00;99578.62;5606887;31;34314;-69
2023/08/07 04:06:54;;;;;;;3.75;0.50;;;;;;;14.88;100.00;99583.97;5606569;31;33857;-68
2023/08/07 04:09:58;;;;;;;1.00;0.50;;;;;;;14.85;100.00;99584.41;5606820;31;33817;-69
2023/08/07 04:13:00;;;;;;;2.25;0.52;;;;;;;14.84;100.00;99580.94;5606724;31;34971;-68
2023/08/07 04:16:06;;;;;;;3.87;0.60;;;;;;;14.84;100.00;99577.44;5606751;31;33761;-69
2023/08/07 04:19:09;;;;;;;0.65;0.55;;;;;;;14.84;100.00;99590.78;5607034;31;33915;-70
2023/08/07 04:22:12;;;;;;;1.83;0.60;;;;;;;14.87;100.00;99590.34;5606718;31;34684;-69
2023/08/07 04:25:14;;;;;;;0.60;0.50;;;;;;;14.83;100.00;99594.47;5606743;31;33847;-70
2023/08/07 04:28:18;;;;;;;4.22;0.60;;;;;;;14.77;100.00;99588.97;5607111;31;33833;-70
2023/08/07 04:31:20;;;;;;;1.92;0.50;;;;;;;14.79;100.00;99602.94;5606727;31;33984;-68
2023/08/07 04:34:23;;;;;;;2.70;0.50;;;;;;;14.86;100.00;99588.72;5606699;31;34261;-69
2023/08/07 04:37:26;;;;;;;1.83;0.60;;;;;;;14.94;100.00;99597.31;5607061;31;33165;-70
2023/08/07 04:40:29;;;;;;;1.87;0.60;;;;;;;14.97;100.00;99601.38;5606466;31;35339;-70
2023/08/07 04:43:32;;;;;;;3.40;0.50;;;;;;;14.95;100.00;99601.62;5605482;31;33986;-69
2023/08/07 04:46:35;;;;;;;1.23;0.50;;;;;;;15.01;100.00;99600.72;5606610;31;33682;-68
2023/08/07 04:49:37;;;;;;;2.42;0.40;;;;;;;14.98;100.00;99600.34;5606347;31;33651;-71
2023/08/07 04:52:40;;;;;;;2.97;0.60;;;;;;;15.05;100.00;99601.97;5606694;31;33765;-68
2023/08/07 04:55:43;;;;;;;0.82;0.50;;;;;;;15.28;100.00;99601.38;5605601;31;33874;-70
2023/08/07 04:58:46;;;;;;;2.12;0.60;;;;;;;15.37;100.00;99593.91;5606237;31;34748;-70
2023/08/07 05:01:48;;;;;;;2.65;0.60;;;;;;;15.51;100.00;99595.47;5605189;31;33701;-69
2023/08/07 05:04:51;;;;;;;4.28;0.70;;;;;;;15.60;100.00;99588.81;5605806;31;33708;-69
2023/08/07 05:07:54;;;;;;;1.87;0.60;;;;;;;15.64;100.00;99601.53;5605203;31;33938;-69
2023/08/07 05:10:57;;;;;;;1.52;0.80;;;;;;;15.71;100.00;99604.16;5606257;31;33603;-70
2023/08/07 05:14:00;;;;;;;3.42;0.65;;;;;;;15.70;100.00;99591.81;5606158;31;34564;-69
2023/08/07 05:17:03;;;;;;;2.08;0.80;;;;;;;15.60;100.00;99594.97;5605732;31;34726;-70
2023/08/07 05:20:08;;;;;;;1.35;0.60;;;;;;;15.66;100.00;99598.63;5605557;31;33782;-69
2023/08/07 05:23:12;;;;;;;1.10;0.60;;;;;;;15.80;100.00;99596.66;5605767;31;34561;-70
2023/08/07 05:26:16;;;;;;;1.95;0.60;;;;;;;15.90;100.00;99599.63;5605959;31;33895;-71
2023/08/07 05:29:19;;;;;;;3.75;0.90;;;;;;;16.03;100.00;99596.81;5605970;31;34205;-69
2023/08/07 05:32:22;;;;;;;1.30;0.70;;;;;;;16.09;100.00;99588.72;5586277;31;34326;-69
2023/08/07 05:35:25;;;;;;;1.58;0.80;;;;;;;16.12;100.00;99603.50;5585929;31;33866;-70
2023/08/07 05:38:28;;;;;;;2.60;0.85;;;;;;;16.20;100.00;99597.06;5586197;31;34118;-69
2023/08/07 05:41:31;;;;;;;2.72;0.70;;;;;;;16.22;100.00;99606.50;5585726;31;33750;-69
2023/08/07 05:44:34;;;;;;;3.65;0.70;;;;;;;16.26;100.00;99609.56;5585569;31;33976;-68
2023/08/07 05:47:37;;;;;;;1.50;0.80;;;;;;;16.37;100.00;99620.31;5584517;31;33740;-69
2023/08/07 05:50:39;;;;;;;1.90;0.80;;;;;;;16.34;100.00;99628.00;5585427;31;33620;-69
2023/08/07 05:53:42;;;;;;;5.12;1.23;;;;;;;16.31;100.00;99633.81;5584578;31;33532;-70
2023/08/07 05:56:45;;;;;;;9.68;1.02;;;;;;;16.36;100.00;99647.34;5585615;31;34420;-68
2023/08/07 05:59:48;;;;;;;5.07;0.90;;;;;;;16.34;100.00;99644.88;5585444;31;33882;-68
2023/08/07 06:02:50;;;;;;;1.98;0.80;;;;;;;16.31;100.00;99650.69;5585303;31;34516;-66
2023/08/07 06:05:53;;;;;;;2.72;0.70;;;;;;;16.33;100.00;99634.38;5585194;31;33583;-69
2023/08/07 06:08:56;;;;;;;1.70;0.70;;;;;;;16.35;100.00;99665.25;5585132;31;33826;-70
2023/08/07 06:12:02;;;;;;;2.45;0.80;;;;;;;16.60;100.00;99670.56;5587047;31;34259;-70
2023/08/07 06:15:05;;;;;;;6.97;0.80;;;;;;;16.63;100.00;99685.34;5587924;31;34725;-70
2023/08/07 06:18:08;;;;;;;6.05;0.77;;;;;;;16.53;100.00;99684.00;5605691;31;34490;-69
2023/08/07 06:21:11;;;;;;;1.23;0.60;;;;;;;16.77;98.77;99681.47;5606318;31;33923;-71
2023/08/07 06:24:14;;;;;;;2.35;0.75;;;;;;;16.86;100.00;99697.03;5607969;31;33722;-70
2023/08/07 06:27:17;;;;;;;1.90;0.60;;;;;;;17.38;96.05;99700.84;5607249;31;33883;-70
2023/08/07 06:30:19;;;;;;;3.05;0.60;;;;;;;17.13;95.27;99702.88;5607151;31;34010;-70
2023/08/07 06:33:22;;;;;;;0.90;0.70;;;;;;;16.93;95.45;99707.66;5606780;31;34299;-70
2023/08/07 06:36:25;;;;;;;3.00;0.70;;;;;;;17.07;96.37;99711.81;5604872;31;34593;-69
2023/08/07 06:39:29;;;;;;;1.77;0.60;;;;;;;16.68;97.01;99709.59;5586645;31;33784;-69
2023/08/07 06:42:32;;;;;;;3.60;0.80;;;;;;;16.94;95.83;99720.81;5587776;31;33832;-71
2023/08/07 06:45:35;;;;;;;5.18;0.60;;;;;;;16.79;95.29;99716.91;5587627;31;33925;-69
2023/08/07 06:48:38;;;;;;;0.77;0.70;;;;;;;16.95;98.60;99721.63;5587571;31;34137;-69
2023/08/07 06:51:40;;;;;;;0.98;0.60;;;;;;;16.97;96.18;99734.81;5587094;31;33845;-70
2023/08/07 06:54:43;;;;;;;2.28;0.50;;;;;;;16.74;100.00;99730.97;5587032;31;33544;-70
2023/08/07 06:57:46;;;;;;;4.28;0.60;;;;;;;16.84;97.48;99733.13;5586409;31;34602;-69
2023/08/07 07:00:49;;;;;;;1.58;0.60;;;;;;;16.78;95.53;99729.47;5587636;31;33734;-70
2023/08/07 07:03:52;;;;;;;1.80;0.50;;;;;;;17.07;94.83;99740.47;5587917;31;33764;-72
2023/08/07 07:06:55;;;;;;;2.15;0.68;;;;;;;16.99;94.39;99733.56;5586458;31;33894;-70
2023/08/07 07:10:00;;;;;;;2.50;0.60;;;;;;;17.15;95.31;99732.94;5587516;31;34421;-69
2023/08/07 07:13:03;;;;;;;1.77;0.57;;;;;;;17.21;91.65;99732.03;5587853;31;34157;-69
2023/08/07 07:16:06;;;;;;;2.08;0.40;;;;;;;17.19;91.22;99730.59;5587473;31;32709;-71
2023/08/07 07:19:09;;;;;;;0.70;0.40;;;;;;;17.20;90.71;99734.94;5587473;31;34279;-68
2023/08/07 07:22:12;;;;;;;4.35;0.60;;;;;;;17.47;87.38;99733.53;5586596;31;33919;-69
2023/08/07 07:25:14;;;;;;;2.40;0.60;;;;;;;17.66;87.27;99734.34;5587715;31;33568;-70
2023/08/07 07:28:17;;;;;;;3.75;0.32;;;;;;;17.61;82.98;99724.28;5587482;31;33856;-68
2023/08/07 07:31:20;;;;;;;2.20;0.60;;;;;;;17.51;84.77;99737.41;5587421;31;33796;-70
2023/08/07 07:34:23;;;;;;;1.98;0.62;;;;;;;17.58;84.44;99735.44;5587274;31;33689;-71
2023/08/07 07:37:27;;;;;;;0.88;0.50;;;;;;;17.86;85.28;99745.59;5589450;31;33979;-70
2023/08/07 07:40:30;;;;;;;3.83;0.40;;;;;;;18.13;81.70;99743.28;5587941;31;33906;-70
2023/08/07 07:43:33;;;;;;;1.33;0.50;;;;;;;18.28;82.31;99750.88;5587247;31;33768;-70
2023/08/07 07:46:35;;;;;;;2.17;0.40;;;;;;;18.06;81.72;99753.28;5581689;31;119054;-70
2023/08/07 07:49:38;;;;;;;3.78;0.60;;;;;;;18.01;82.66;99748.63;5586787;31;34488;-70
2023/08/07 07:52:41;;;;;;;0.85;0.47;;;;;;;17.96;82.13;99763.81;5587189;31;35411;-68
2023/08/07 07:55:47;;;;;;;2.25;0.30;;;;;;;18.04;82.19;99776.88;5587164;31;33886;-70
2023/08/07 07:58:52;;;;;;;2.62;0.60;;;;;;;17.49;84.30;99768.97;5586956;31;33887;-68
2023/08/07 08:01:55;;;;;;;3.00;0.50;;;;;;;17.47;84.39;99773.78;5586929;31;33248;-69
2023/08/07 08:04:58;;;;;;;0.75;0.40;;;;;;;18.06;81.05;99780.94;5586563;31;33762;-71
2023/08/07 08:08:01;;;;;;;0.93;0.52;;;;;;;18.24;81.39;99790.81;5586808;31;33562;-71
2023/08/07 08:11:04;;;;;;;4.37;0.50;;;;;;;17.90;80.44;99787.00;5586664;31;34440;-70
2023/08/07 08:14:07;;;;;;;2.08;0.30;;;;;;;17.85;77.83;99799.47;5586849;31;34539;-70
2023/08/07 08:17:09;;;;;;;3.67;0.43;;;;;;;18.15;78.16;99794.87;5586364;31;34101;-69
2023/08/07 08:20:15;;;;;;;0.68;0.30;;;;;;;18.47;77.39;99798.06;5586481;31;33973;-70
2023/08/07 08:23:18;;;;;;;1.67;0.32;;;;;;;18.55;76.53;99800.41;5585750;31;33917;-69
2023/08/07 08:26:21;;;;;;;1.37;0.40;;;;;;;18.23;77.66;99807.97;5586717;31;34895;-71
2023/08/07 08:29:24;;;;;;;2.15;0.40;;;;;;;18.27;77.09;99811.81;5586557;31;35106;-70
2023/08/07 08:32:29;;;;;;;1.00;0.43;;;;;;;18.87;74.94;99819.69;5586720;31;33750;-68
2023/08/07 08:35:32;;;;;;;0.62;0.30;;;;;;;18.77;76.91;99814.91;5585880;31;34468;-69
2023/08/07 08:38:35;;;;;;;0.45;0.40;;;;;;;18.75;76.44;99822.38;5586663;31;34154;-70
2023/08/07 08:41:38;;;;;;;1.42;0.47;;;;;;;19.02;74.68;99818.16;5586341;31;33024;-71
2023/08/07 08:44:52;;;;;;;1.75;0.20;;;;;;;18.61;74.87;99819.13;5586434;31;34848;-68
2023/08/07 08:48:01;;;;;;;2.78;0.50;;;;;;;18.82;72.37;99825.78;5586773;31;34593;-70
2023/08/07 08:51:04;;;;;;;1.85;0.35;;;;;;;19.12;70.81;99837.16;5586908;31;33843;-68
2023/08/07 08:54:08;;;;;;;1.52;0.30;;;;;;;18.91;70.93;99832.44;5586305;31;34465;-71
2023/08/07 08:57:12;;;;;;;3.30;0.45;;;;;;;19.14;71.00;99841.50;5572800;31;33797;-70
2023/08/07 09:00:20;;;;;;;2.72;0.40;;;;;;;18.94;71.14;99849.94;5586294;31;33874;-69
2023/08/07 09:03:24;;;;;;;0.70;0.30;;;;;;;19.09;72.56;99852.97;5586393;31;33665;-70
2023/08/07 09:06:30;;;;;;;2.97;0.40;;;;;;;18.90;72.82;99851.47;5585789;31;32964;-69
2023/08/07 09:09:33;;;;;;;1.25;0.40;;;;;;;18.82;73.32;99851.81;5586609;31;33956;-68
2023/08/07 09:12:49;;;;;;;1.02;0.30;;;;;;;18.79;74.12;99857.66;5585979;31;33725;-71
2023/08/07 09:15:53;;;;;;;3.37;0.40;;;;;;;18.86;73.97;99855.69;5586203;31;33609;-69
2023/08/07 09:18:55;;;;;;;2.50;0.50;;;;;;;19.12;74.64;99861.38;5586344;31;34534;-68
2023/08/07 09:21:58;;;;;;;2.05;0.30;;;;;;;19.12;72.20;99855.19;5585465;31;34068;-70
2023/08/07 09:25:01;;;;;;;2.58;0.32;;;;;;;20.05;69.58;99862.16;5585692;31;34146;-70
2023/08/07 09:28:05;;;;;;;0.70;0.30;;;;;;;20.09;66.21;99866.81;5585757;31;33723;-71
2023/08/07 09:31:14;;;;;;;1.70;0.30;;;;;;;19.66;68.14;99861.97;5585787;31;34434;-71
2023/08/07 09:34:20;;;;;;;1.40;0.30;;;;;;;19.66;65.58;99858.47;5585754;31;33305;-70
2023/08/07 09:37:23;;;;;;;1.85;0.25;;;;;;;19.72;68.51;99852.94;5585266;31;33971;-69
2023/08/07 09:40:30;;;;;;;1.20;0.30;;;;;;;20.06;65.45;99855.72;5585019;31;33681;-72
2023/08/07 09:43:36;;;;;;;2.12;0.30;;;;;;;21.29;60.00;99854.72;5572155;31;34510;-70
2023/08/07 09:46:43;;;;;;;2.05;0.30;;;;;;;21.17;63.05;99871.84;5587048;31;33860;-72
2023/08/07 09:49:48;;;;;;;0.50;0.20;;;;;;;20.44;61.87;99868.53;5588124;31;33882;-69
2023/08/07 09:52:50;;;;;;;0.60;0.20;;;;;;;20.13;64.16;99873.38;5591763;31;34468;-69
2023/08/07 09:55:55;;;;;;;0.30;0.30;;;;;;;19.72;67.99;99879.87;5601854;31;33714;-71
2023/08/07 09:58:58;;;;;;;0.93;0.20;;;;;;;19.93;67.74;99889.16;5587206;31;33743;-70
2023/08/07 10:02:02;;;;;;;2.50;0.40;;;;;;;19.03;70.29;99895.06;5588114;31;34883;-68
2023/08/07 10:05:08;;;;;;;1.48;0.28;;;;;;;18.76;70.40;99903.81;5588093;31;33703;-68
2023/08/07 10:08:11;;;;;;;1.08;0.10;;;;;;;18.66;71.14;99902.53;5587954;31;34366;-68
2023/08/07 10:11:16;;;;;;;1.67;0.20;;;;;;;19.83;67.48;99905.12;5598422;31;34494;-69
2023/08/07 10:14:18;;;;;;;7.97;0.57;;;;;;;21.62;60.71;99881.59;5607461;31;34285;-71
2023/08/07 10:17:22;;;;;;;2.50;0.47;;;;;;;22.28;57.68;99896.63;5607622;31;33817;-68
2023/08/07 10:20:27;;;;;;;0.77;0.10;;;;;;;23.81;52.33;99907.44;5607185;31;33889;-69
2023/08/07 10:23:33;;;;;;;0.30;0.10;;;;;;;22.44;51.33;99901.13;5607615;31;34151;-69
2023/08/07 10:26:41;;;;;;;0.75;0.20;;;;;;;22.47;55.38;99906.00;5605510;31;34761;-70
2023/08/07 10:29:47;;;;;;;0.45;0.20;;;;;;;21.47;54.66;99905.69;5601608;31;34967;-68
2023/08/07 10:32:51;;;;;;;0.85;0.20;;;;;;;22.36;54.39;99896.19;5587699;31;34837;-68
2023/08/07 10:35:54;;;;;;;1.42;0.25;;;;;;;20.96;59.05;99886.06;5587679;31;33944;-69
2023/08/07 10:39:07;;;;;;;0.80;0.20;;;;;;;20.33;63.55;99910.66;5588424;31;33475;-69
2023/08/07 10:42:11;;;;;;;1.00;0.28;;;;;;;19.55;70.44;99905.91;5607526;31;34087;-69
2023/08/07 10:45:17;;;;;;;1.45;0.15;;;;;;;20.12;67.22;99904.06;5607472;31;33832;-69
2023/08/07 10:48:21;;;;;;;0.43;0.20;;;;;;;19.65;68.84;99897.22;5606599;31;34019;-68
2023/08/07 10:51:30;;;;;;;2.30;0.50;;;;;;;19.21;70.41;99904.06;5606362;31;34798;-67
2023/08/07 10:54:54;;;;;;;2.15;0.28;;;;;;;19.23;69.20;99908.13;5607237;31;34994;-67
2023/08/07 10:57:56;;;;;;;1.35;0.30;;;;;;;19.23;71.25;99926.97;5607106;31;34571;-69
2023/08/07 11:01:24;;;;;;;0.75;0.20;;;;;;;19.99;69.58;99917.00;5607092;31;34145;-69
2023/08/07 11:04:28;;;;;;;2.47;0.30;;;;;;;19.99;68.67;99912.44;5607414;31;34326;-70
2023/08/07 11:07:31;;;;;;;0.50;0.20;;;;;;;19.22;73.98;99932.59;5606934;31;33570;-72
2023/08/07 11:10:34;;;;;;;0.47;0.15;;;;;;;18.76;75.65;99931.50;5606430;31;33759;-69
2023/08/07 11:13:37;;;;;;;0.82;0.25;;;;;;;19.04;72.96;99947.78;5607284;31;33840;-69
2023/08/07 11:16:40;;;;;;;2.58;0.30;;;;;;;18.62;76.01;99935.47;5607200;31;33740;-69
2023/08/07 11:19:46;;;;;;;1.35;0.30;;;;;;;19.09;74.82;99929.06;5607689;31;34051;-69
2023/08/07 11:22:48;;;;;;;5.03;0.45;;;;;;;19.64;72.46;99930.56;5606537;31;34021;-70
2023/08/07 11:25:52;;;;;;;0.95;0.40;;;;;;;19.79;71.94;99928.19;5606747;31;33892;-70
2023/08/07 11:28:55;;;;;;;2.03;0.47;;;;;;;21.77;65.86;99932.25;5606854;31;33551;-69
2023/08/07 11:32:00;;;;;;;4.20;0.47;;;;;;;22.06;58.96;99945.34;5606787;31;33760;-72
2023/08/07 11:35:05;;;;;;;2.12;0.30;;;;;;;22.86;58.21;99939.09;5606999;31;33685;-70
2023/08/07 11:38:08;;;;;;;1.02;0.40;;;;;;;21.34;59.23;99943.84;5606462;31;33797;-70
2023/08/07 11:41:14;;;;;;;1.33;0.20;;;;;;;21.11;59.72;99939.41;5606572;31;34859;-69
2023/08/07 11:44:17;;;;;;;1.55;0.30;;;;;;;20.82;61.21;99946.78;5607120;31;34017;-69
2023/08/07 11:47:19;;;;;;;1.10;0.17;;;;;;;20.43;64.62;99935.06;5606788;31;34651;-70
2023/08/07 11:50:23;;;;;;;1.48;0.20;;;;;;;18.77;70.79;99933.16;5606906;31;34447;-69
2023/08/07 11:53:27;;;;;;;0.45;0.30;;;;;;;18.08;79.03;99928.38;5607050;31;34218;-71
2023/08/07 11:56:30;;;;;;;1.85;0.30;;;;;;;19.41;74.59;99937.56;5607039;31;34289;-69
2023/08/07 11:59:33;;;;;;;3.03;0.30;;;;;;;22.30;59.26;99936.94;5606657;31;34817;-70
2023/08/07 12:02:36;;;;;;;3.33;0.60;;;;;;;20.67;67.65;99950.03;5606306;31;33860;-71
2023/08/07 12:05:40;;;;;;;2.37;0.40;;;;;;;21.02;69.59;99957.06;5606785;31;33793;-69
2023/08/07 12:08:49;;;;;;;0.90;0.30;;;;;;;21.55;63.76;99951.12;5605201;31;34052;-71
2023/08/07 12:11:57;;;;;;;1.00;0.40;;;;;;;23.15;56.41;99947.69;5606419;31;34460;-70
2023/08/07 12:15:01;;;;;;;2.00;0.28;;;;;;;23.03;55.24;99946.25;5605421;31;33859;-71
2023/08/07 12:18:07;;;;;;;0.82;0.32;;;;;;;23.90;53.87;99942.97;5601509;31;33892;-70
2023/08/07 12:21:10;;;;;;;0.70;0.45;;;;;;;23.31;55.83;99938.59;5606690;31;32460;-71
2023/08/07 12:24:13;;;;;;;2.33;0.30;;;;;;;24.34;51.15;99959.66;5606860;31;34086;-69
2023/08/07 12:27:15;;;;;;;0.52;0.30;;;;;;;24.58;49.97;99949.94;5606596;31;34022;-70
2023/08/07 12:30:19;;;;;;;1.65;0.30;;;;;;;25.09;49.10;99951.56;5606382;31;34738;-69
2023/08/07 12:33:22;;;;;;;0.60;0.30;;;;;;;26.11;47.16;99951.25;5606519;31;33646;-70
2023/08/07 12:36:25;;;;;;;2.05;0.30;;;;;;;24.88;46.89;99958.13;5605470;31;33914;-69
2023/08/07 12:39:28;;;;;;;1.45;0.32;;;;;;;25.93;47.60;99972.56;5606502;31;34653;-70
2023/08/07 12:42:33;;;;;;;0.80;0.30;;;;;;;25.06;47.64;99960.28;5605525;31;33793;-71
2023/08/07 12:45:36;;;;;;;2.05;0.37;;;;;;;22.87;51.16;99942.59;5606215;31;33935;-71
2023/08/07 12:48:42;;;;;;;4.60;0.40;;;;;;;23.77;51.47;99961.31;5606100;31;34833;-71
2023/08/07 12:51:44;;;;;;;1.95;0.40;;;;;;;25.23;47.67;99972.72;5606225;31;33827;-71
2023/08/07 12:54:48;;;;;;;1.60;0.28;;;;;;;22.53;54.09;99977.16;5606196;31;34182;-69
2023/08/07 12:57:52;;;;;;;3.10;0.75;;;;;;;20.10;64.02;99967.28;5605415;31;34528;-70
2023/08/07 13:00:55;;;;;;;0.77;0.50;;;;;;;19.69;66.01;99965.66;5605072;31;33823;-70
2023/08/07 13:03:58;;;;;;;2.15;0.50;;;;;;;19.42;72.00;99967.97;5605359;31;33771;-70
2023/08/07 13:07:02;;;;;;;1.25;0.43;;;;;;;21.34;64.17;99973.53;5605918;31;34752;-70
2023/08/07 13:10:06;;;;;;;1.23;0.30;;;;;;;23.33;52.50;99982.44;5606278;31;33866;-69
2023/08/07 13:13:09;;;;;;;1.87;0.30;;;;;;;24.86;49.30;99990.09;5606194;31;33575;-71
2023/08/07 13:16:12;;;;;;;0.52;0.20;;;;;;;27.04;44.80;99986.59;5605953;31;33858;-71
2023/08/07 13:19:15;;;;;;;2.15;0.35;;;;;;;27.60;43.43;99990.41;5605040;31;33817;-71
2023/08/07 13:22:17;;;;;;;0.62;0.37;;;;;;;25.17;45.48;99990.94;5604015;31;33600;-74
2023/08/07 13:25:20;;;;;;;1.95;0.30;;;;;;;22.64;51.62;99992.41;5605708;31;33980;-73
2023/08/07 13:28:23;;;;;;;2.50;0.45;;;;;;;23.34;52.07;99994.09;5605517;31;33824;-71
2023/08/07 13:31:26;;;;;;;1.55;0.60;;;;;;;21.43;56.39;99989.03;5605392;31;33845;-70
2023/08/07 13:34:29;;;;;;;0.88;0.30;;;;;;;20.93;60.50;99999.81;5605290;31;33844;-71
2023/08/07 13:37:33;;;;;;;2.53;0.40;;;;;;;20.56;61.62;100004.03;5603142;31;34886;-70
2023/08/07 13:40:36;;;;;;;0.60;0.40;;;;;;;19.06;69.75;100001.31;5605362;31;33832;-71
2023/08/07 13:43:38;;;;;;;1.52;0.40;;;;;;;19.51;71.21;100015.03;5605364;31;33551;-72
2023/08/07 13:46:41;;;;;;;1.02;0.40;;;;;;;19.62;70.73;100002.63;5605639;31;34632;-69
2023/08/07 13:49:44;;;;;;;0.50;0.40;;;;;;;18.89;72.30;100011.09;5603424;31;33893;-71
2023/08/07 13:52:47;;;;;;;3.35;0.30;;;;;;;18.66;75.52;100018.06;5605256;31;33860;-71
2023/08/07 13:56:07;;;;;;;0.95;0.40;;;;;;;17.45;87.09;100025.25;5593307;31;33989;-71
2023/08/07 13:59:09;;;;;;;0.77;0.40;;;;;;;17.56;91.50;100011.13;5595088;31;33766;-72
2023/08/07 14:02:12;;;;;;;2.47;0.40;;;;;;;18.76;81.36;100024.75;5598708;31;34885;-72
2023/08/07 14:05:15;;;;;;;1.27;0.30;;;;;;;17.93;87.27;100021.88;5594349;31;34252;-71
2023/08/07 14:08:18;;;;;;;0.95;0.30;;;;;;;18.26;86.75;100022.28;5584871;31;33731;-70
2023/08/07 14:11:21;;;;;;;0.88;0.50;;;;;;;18.00;85.55;100033.37;5598365;31;34282;-69
2023/08/07 14:14:23;;;;;;;0.90;0.43;;;;;;;17.51;91.12;100029.72;5584924;31;33805;-70
2023/08/07 14:17:26;;;;;;;1.60;0.37;;;;;;;17.68;93.81;100035.34;5587613;31;34437;-70
2023/08/07 14:20:29;;;;;;;2.30;0.40;;;;;;;17.37;94.60;100036.25;5584590;31;34570;-70